Jaipur, India
Current Conditions -  °F | °C
As of 6:30 AM on Wednesday 26 Nov 2014 (Local Time) from VIJP Reporting Station
Smoke Smoke  
Wind Chill: 14°   Ceiling: Unl
Heat Index: 14°   Visibility: 1.2mi
Dew Point:   Wind: 0mph
Humidity: 51%   Direction: NA
Pressure: 29.94"   Gusts: NA
Location:  26.91°N, 75.8°E
Report Text: VIJP 260130Z 00000KT 2000 FU NSC 14/04 Q1014 NOSIG
Loading
Personal Weather Stations






























Interactive Weather Map New forecast layout! Learn more

10-Day Weather Forecast

Advertisements
Track Severe Weather on mobile